Time;durP1;ratioP1;P1;durP2;ratioP2;P2;SDS_P1;SDS_P2;PMS_P1;PMS_P2;Temp;Humidity;BMP_temperature;BMP_pressure;BME280_temperature;BME280_humidity;BME280_pressure;Samples;Min_cycle;Max_cycle;Signal;HPM_P1;HPM_P2
2021/04/04 00:01:37;;;;;;;16.65;7.07;;;4.90;78.50;;;;;;5023872;28;20059;-74
2021/04/04 00:04:04;;;;;;;25.10;8.38;;;4.90;78.30;;;;;;5026147;28;20045;-74
2021/04/04 00:06:29;;;;;;;22.77;8.05;;;4.90;78.40;;;;;;5015889;28;20050;-75
2021/04/04 00:08:55;;;;;;;23.30;8.32;;;5.00;78.30;;;;;;5025829;28;20395;-75
2021/04/04 00:11:21;;;;;;;21.27;8.30;;;5.00;78.20;;;;;;5032984;28;20053;-74
2021/04/04 00:13:47;;;;;;;27.48;8.00;;;5.00;78.20;;;;;;5022776;28;20041;-71
2021/04/04 00:16:12;;;;;;;23.20;8.38;;;5.00;78.10;;;;;;5022296;28;20057;-72
2021/04/04 00:18:41;;;;;;;31.52;9.75;;;5.00;77.80;;;;;;5031656;28;20032;-74
2021/04/04 00:21:07;;;;;;;21.23;8.60;;;5.10;77.70;;;;;;5018333;28;20038;-75
2021/04/04 00:23:33;;;;;;;25.83;8.70;;;5.10;77.50;;;;;;5036234;28;20392;-74
2021/04/04 00:25:58;;;;;;;26.35;8.43;;;5.10;77.50;;;;;;5020516;28;20030;-73
2021/04/04 00:28:24;;;;;;;26.52;9.70;;;5.10;77.40;;;;;;5028074;28;20064;-72
2021/04/04 00:30:50;;;;;;;22.90;9.38;;;5.20;77.20;;;;;;5024132;28;20037;-73
2021/04/04 00:33:16;;;;;;;22.63;9.38;;;5.30;77.00;;;;;;5025596;28;20037;-73
2021/04/04 00:35:42;;;;;;;25.05;10.32;;;5.30;76.70;;;;;;5026593;28;20033;-72
2021/04/04 00:38:09;;;;;;;23.27;10.75;;;5.40;76.60;;;;;;5043465;28;20045;-72
2021/04/04 00:40:36;;;;;;;29.10;10.98;;;5.40;76.30;;;;;;5030988;28;20119;-72
2021/04/04 00:43:02;;;;;;;22.20;9.25;;;5.50;76.20;;;;;;5027866;28;20033;-72
2021/04/04 00:45:31;;;;;;;24.48;9.80;;;5.50;76.30;;;;;;5032024;28;20499;-72
2021/04/04 00:47:57;;;;;;;25.08;10.63;;;5.60;76.20;;;;;;5028016;28;20045;-72
2021/04/04 00:50:26;;;;;;;26.30;9.25;;;5.60;76.10;;;;;;5021151;28;20080;-73
2021/04/04 00:52:55;;;;;;;28.48;9.40;;;5.60;76.10;;;;;;5024178;28;21390;-72
2021/04/04 00:55:23;;;;;;;22.35;9.43;;;5.60;75.90;;;;;;5025864;28;20037;-73
2021/04/04 00:57:50;;;;;;;27.08;10.63;;;5.60;76.00;;;;;;5029561;28;20057;-72
2021/04/04 01:00:17;;;;;;;25.05;9.35;;;5.60;75.90;;;;;;5014196;28;20125;-72
2021/04/04 01:02:43;;;;;;;25.20;10.25;;;5.70;75.80;;;;;;4996779;28;20569;-73
2021/04/04 01:05:20;;;;;;;22.42;9.95;;;5.60;75.80;;;;;;4993263;28;20038;-72
2021/04/04 01:07:47;;;;;;;23.88;9.75;;;5.70;75.70;;;;;;4999473;28;20049;-72
2021/04/04 01:10:14;;;;;;;25.55;9.38;;;5.70;75.70;;;;;;4994143;28;20057;-73
2021/04/04 01:13:04;;;;;;;23.08;10.68;;;5.70;75.70;;;;;;5001045;28;20504;-73
2021/04/04 01:16:08;;;;;;;26.58;10.65;;;5.70;75.60;;;;;;5035159;28;20075;-72
2021/04/04 01:18:39;;;;;;;28.25;10.57;;;5.80;75.50;;;;;;5013050;28;20053;-73
2021/04/04 01:21:11;;;;;;;23.77;10.18;;;5.80;75.60;;;;;;5027166;28;20434;-73
2021/04/04 01:24:11;;;;;;;27.48;10.10;;;5.80;75.50;;;;;;5028906;28;20036;-73
2021/04/04 01:26:53;;;;;;;29.88;12.93;;;5.80;75.70;;;;;;5025760;28;20060;-72
2021/04/04 01:29:21;;;;;;;25.40;9.45;;;5.80;75.60;;;;;;5019666;28;20033;-75
2021/04/04 01:31:50;;;;;;;22.50;10.48;;;5.80;75.70;;;;;;5014842;28;20049;-73
2021/04/04 01:34:19;;;;;;;31.25;10.65;;;5.90;75.70;;;;;;5001813;28;20122;-73
2021/04/04 01:36:47;;;;;;;26.65;10.70;;;5.90;75.60;;;;;;5005434;28;20037;-73
2021/04/04 01:39:15;;;;;;;21.65;9.65;;;5.90;75.40;;;;;;4997704;28;20087;-72
2021/04/04 01:41:42;;;;;;;24.08;10.80;;;5.90;75.40;;;;;;4993873;28;20057;-72
2021/04/04 01:44:13;;;;;;;23.27;10.38;;;5.90;75.30;;;;;;4994763;28;20523;-73
2021/04/04 01:46:41;;;;;;;24.35;9.70;;;5.90;75.50;;;;;;4996116;28;20066;-73
2021/04/04 01:49:07;;;;;;;25.30;9.77;;;5.90;75.50;;;;;;5001122;28;20046;-72
2021/04/04 01:51:34;;;;;;;22.30;10.80;;;5.90;75.70;;;;;;5010191;28;20046;-73
2021/04/04 01:54:03;;;;;;;34.88;11.73;;;5.90;75.60;;;;;;4998657;28;20422;-73
2021/04/04 01:56:29;;;;;;;27.33;11.15;;;5.90;75.20;;;;;;5030038;28;20048;-72
2021/04/04 01:58:56;;;;;;;31.00;11.57;;;6.00;74.10;;;;;;5022460;28;20116;-73
2021/04/04 02:01:22;;;;;;;26.25;12.48;;;6.10;74.20;;;;;;5022149;28;20045;-73
2021/04/04 02:03:48;;;;;;;29.88;12.38;;;6.10;74.20;;;;;;5001618;28;20061;-73
2021/04/04 02:06:17;;;;;;;30.38;12.35;;;6.10;74.40;;;;;;5001541;28;20045;-72
2021/04/04 02:08:44;;;;;;;25.85;12.07;;;6.10;74.10;;;;;;5024536;28;20033;-73
2021/04/04 02:11:12;;;;;;;29.00;12.48;;;6.10;74.40;;;;;;5015507;28;20030;-73
2021/04/04 02:13:38;;;;;;;29.10;13.52;;;6.10;73.70;;;;;;5032464;28;20029;-73
2021/04/04 02:16:06;;;;;;;26.30;12.38;;;6.00;73.40;;;;;;5026572;28;20041;-73
2021/04/04 02:18:33;;;;;;;31.10;12.27;;;6.10;73.50;;;;;;5021893;28;20056;-72
2021/04/04 02:21:00;;;;;;;30.30;13.02;;;6.10;73.60;;;;;;5025025;28;20477;-73
2021/04/04 02:23:28;;;;;;;27.27;12.45;;;6.10;73.70;;;;;;5017842;28;20096;-73
2021/04/04 02:25:57;;;;;;;27.25;12.23;;;6.10;74.00;;;;;;5020638;28;20125;-72
2021/04/04 02:28:24;;;;;;;25.63;12.25;;;6.10;74.20;;;;;;5015894;28;20465;-73
2021/04/04 02:30:50;;;;;;;26.52;12.57;;;6.10;74.30;;;;;;5019796;28;20067;-73
2021/04/04 02:33:25;;;;;;;24.65;11.65;;;6.10;74.40;;;;;;5022116;28;20385;-73
2021/04/04 02:36:03;;;;;;;29.33;11.43;;;6.10;74.10;;;;;;5024627;28;20030;-73
2021/04/04 02:38:36;;;;;;;27.38;13.68;;;6.10;73.80;;;;;;5029624;28;20053;-73
2021/04/04 02:41:05;;;;;;;27.00;12.52;;;6.10;74.10;;;;;;5018352;28;20037;-73
2021/04/04 02:43:31;;;;;;;32.40;13.07;;;6.10;74.20;;;;;;4995693;28;20046;-73
2021/04/04 02:45:59;;;;;;;24.48;12.48;;;6.10;74.30;;;;;;4998997;28;20046;-73
2021/04/04 02:48:29;;;;;;;28.20;12.55;;;6.10;74.10;;;;;;5002358;28;20080;-72
2021/04/04 02:50:59;;;;;;;28.42;12.40;;;6.10;74.30;;;;;;4996545;28;21423;-73
2021/04/04 02:53:27;;;;;;;31.73;11.90;;;6.10;74.30;;;;;;4993974;28;20649;-72
2021/04/04 02:55:55;;;;;;;26.90;12.55;;;6.10;74.30;;;;;;4989541;28;20042;-73
2021/04/04 02:58:24;;;;;;;24.23;12.45;;;6.10;74.20;;;;;;4994342;28;20096;-73
2021/04/04 03:00:54;;;;;;;24.20;12.43;;;6.20;74.30;;;;;;5003837;28;20064;-76
2021/04/04 03:03:21;;;;;;;23.48;12.98;;;6.20;74.20;;;;;;5025540;28;20037;-73
2021/04/04 03:05:47;;;;;;;26.23;12.05;;;6.20;74.20;;;;;;5022254;28;20508;-73
2021/04/04 03:08:15;;;;;;;25.40;12.50;;;6.20;74.30;;;;;;5005105;28;20039;-73
2021/04/04 03:10:41;;;;;;;24.10;13.00;;;6.20;74.40;;;;;;5007819;28;20030;-72
2021/04/04 03:13:08;;;;;;;27.60;12.98;;;6.20;74.60;;;;;;5018003;28;20404;-72
2021/04/04 03:15:35;;;;;;;23.30;12.23;;;6.20;74.50;;;;;;5023618;28;20476;-73
2021/04/04 03:18:01;;;;;;;28.95;13.13;;;6.20;74.50;;;;;;5018637;28;20476;-74
2021/04/04 03:20:27;;;;;;;24.83;12.43;;;6.10;74.60;;;;;;5020800;28;20029;-73
2021/04/04 03:22:55;;;;;;;25.77;12.27;;;6.20;74.60;;;;;;5026417;28;20546;-73
2021/04/04 03:25:22;;;;;;;24.65;11.63;;;6.20;74.60;;;;;;5021703;28;20468;-73
2021/04/04 03:27:48;;;;;;;26.00;12.13;;;6.20;74.70;;;;;;5027430;28;20072;-73
2021/04/04 03:30:42;;;;;;;25.00;13.27;;;6.10;75.00;;;;;;5025982;28;20034;-73
2021/04/04 03:33:10;;;;;;;24.40;12.10;;;6.20;75.00;;;;;;5017716;28;20042;-73
2021/04/04 03:35:37;;;;;;;24.45;12.98;;;6.20;75.10;;;;;;5026746;28;20084;-72
2021/04/04 03:38:05;;;;;;;25.90;11.85;;;6.10;75.20;;;;;;5031944;28;20041;-73
2021/04/04 03:40:31;;;;;;;31.20;12.95;;;6.20;75.10;;;;;;5030464;28;20064;-73
2021/04/04 03:42:59;;;;;;;26.95;12.27;;;6.20;75.30;;;;;;5024567;28;20038;-72
2021/04/04 03:45:26;;;;;;;25.55;12.10;;;6.10;75.60;;;;;;5024676;28;20041;-73
2021/04/04 03:47:52;;;;;;;25.42;11.55;;;6.20;75.70;;;;;;5028562;28;20069;-73
2021/04/04 03:50:19;;;;;;;22.70;11.25;;;6.10;75.80;;;;;;5028596;28;20065;-73
2021/04/04 03:52:49;;;;;;;25.25;12.40;;;6.20;76.00;;;;;;5018066;28;20136;-73
2021/04/04 03:55:20;;;;;;;27.63;11.55;;;6.20;76.00;;;;;;5040585;28;20030;-72
2021/04/04 03:57:49;;;;;;;31.30;11.70;;;6.20;75.90;;;;;;5044045;28;20378;-73
2021/04/04 04:00:18;;;;;;;27.60;12.35;;;6.20;75.60;;;;;;5029386;28;20397;-72
2021/04/04 04:02:45;;;;;;;25.55;10.23;;;6.10;75.80;;;;;;5032291;28;20033;-73
2021/04/04 04:05:12;;;;;;;23.80;10.80;;;6.10;75.60;;;;;;5020359;28;20029;-73
2021/04/04 04:07:39;;;;;;;21.02;10.05;;;6.20;75.60;;;;;;5028883;28;20038;-73
2021/04/04 04:10:07;;;;;;;23.40;9.25;;;6.10;75.70;;;;;;5018230;28;20396;-72
2021/04/04 04:12:33;;;;;;;24.92;9.95;;;6.20;75.80;;;;;;5033667;28;20051;-72
2021/04/04 04:14:59;;;;;;;24.23;10.52;;;6.10;75.80;;;;;;5034020;28;20061;-73
2021/04/04 04:17:26;;;;;;;23.67;10.65;;;6.10;75.60;;;;;;5029535;28;20038;-72
2021/04/04 04:19:52;;;;;;;22.13;10.63;;;6.10;75.30;;;;;;5047488;28;20717;-72
2021/04/04 04:22:20;;;;;;;27.35;11.15;;;6.10;75.10;;;;;;5024038;28;20087;-73
2021/04/04 04:24:55;;;;;;;22.42;10.25;;;6.10;75.00;;;;;;5034888;28;20033;-73
2021/04/04 04:27:22;;;;;;;27.83;11.82;;;6.10;75.00;;;;;;5027184;28;23426;-73
2021/04/04 04:29:50;;;;;;;26.00;11.82;;;6.10;74.70;;;;;;5020533;28;20036;-74
2021/04/04 04:32:19;;;;;;;19.73;10.85;;;6.10;74.60;;;;;;5022592;28;20034;-74
2021/04/04 04:34:46;;;;;;;25.00;10.57;;;6.10;74.40;;;;;;5024893;28;20469;-74
2021/04/04 04:37:13;;;;;;;24.00;11.20;;;6.20;74.00;;;;;;5028736;28;20427;-74
2021/04/04 04:39:41;;;;;;;25.13;11.45;;;6.20;73.90;;;;;;5038047;28;20099;-75
2021/04/04 04:42:10;;;;;;;24.63;11.55;;;6.20;74.10;;;;;;5016676;28;20072;-72
2021/04/04 04:44:38;;;;;;;23.23;12.00;;;6.10;74.20;;;;;;5021761;28;20087;-73
2021/04/04 04:47:04;;;;;;;25.92;12.18;;;6.10;74.20;;;;;;5029709;28;20095;-73
2021/04/04 04:49:30;;;;;;;21.88;11.68;;;6.10;74.00;;;;;;5032239;28;20030;-73
2021/04/04 04:51:56;;;;;;;27.50;12.13;;;6.10;74.30;;;;;;5035113;28;20384;-73
2021/04/04 04:54:22;;;;;;;23.10;12.73;;;6.10;74.20;;;;;;5022805;28;20049;-72
2021/04/04 04:56:49;;;;;;;26.70;12.82;;;6.00;74.30;;;;;;5029869;28;20536;-73
2021/04/04 04:59:15;;;;;;;27.55;11.88;;;6.10;74.40;;;;;;5029126;28;20104;-72
2021/04/04 05:01:43;;;;;;;27.55;10.82;;;6.10;73.70;;;;;;5025334;28;20401;-73
2021/04/04 05:04:09;;;;;;;23.83;12.13;;;6.10;73.50;;;;;;5017771;28;20109;-73
2021/04/04 05:06:36;;;;;;;23.48;12.80;;;6.10;73.50;;;;;;5025578;28;20086;-72
2021/04/04 05:09:05;;;;;;;24.33;12.02;;;6.10;73.50;;;;;;5017902;28;20065;-73
2021/04/04 05:11:31;;;;;;;25.27;12.40;;;6.10;73.50;;;;;;5020086;28;20645;-72
2021/04/04 05:13:57;;;;;;;22.73;12.52;;;6.10;73.50;;;;;;5016393;28;20140;-73
2021/04/04 05:16:23;;;;;;;29.02;13.45;;;6.20;73.30;;;;;;5026711;28;20535;-72
2021/04/04 05:18:52;;;;;;;28.20;13.48;;;6.20;73.10;;;;;;5027393;28;20392;-72
2021/04/04 05:21:26;;;;;;;28.10;15.30;;;6.20;73.10;;;;;;4993741;28;20026;-73
2021/04/04 05:24:04;;;;;;;25.50;14.07;;;6.10;73.00;;;;;;5018437;28;20128;-72
2021/04/04 05:26:37;;;;;;;27.23;15.25;;;6.10;72.60;;;;;;5018443;28;20092;-73
2021/04/04 05:29:05;;;;;;;30.30;16.20;;;6.20;72.50;;;;;;5025047;28;20032;-73
2021/04/04 05:31:31;;;;;;;27.05;14.27;;;6.20;72.40;;;;;;5023516;28;20535;-72
2021/04/04 05:33:57;;;;;;;23.05;13.23;;;6.20;71.90;;;;;;5029274;28;20046;-72
2021/04/04 05:36:23;;;;;;;28.08;15.00;;;6.20;71.70;;;;;;5027552;28;20033;-73
2021/04/04 05:38:54;;;;;;;23.40;12.85;;;6.20;71.70;;;;;;5036502;28;20126;-73
2021/04/04 05:41:23;;;;;;;22.33;13.45;;;6.20;71.60;;;;;;5031275;28;20037;-73
2021/04/04 05:43:55;;;;;;;23.92;13.77;;;6.20;71.60;;;;;;5026361;28;20431;-73
2021/04/04 05:46:29;;;;;;;28.98;12.90;;;6.20;71.60;;;;;;5027026;28;20088;-73
2021/04/04 05:49:04;;;;;;;23.45;11.98;;;6.20;71.90;;;;;;5023565;28;20037;-73
2021/04/04 05:51:58;;;;;;;20.83;12.30;;;6.20;71.80;;;;;;5025164;28;20632;-72
2021/04/04 05:54:46;;;;;;;23.40;11.25;;;6.20;72.20;;;;;;5021580;28;20064;-72
2021/04/04 05:57:15;;;;;;;23.75;11.55;;;6.20;72.00;;;;;;5028022;28;20060;-73
2021/04/04 05:59:48;;;;;;;22.67;11.27;;;6.30;72.20;;;;;;5030828;28;20435;-73
2021/04/04 06:02:37;;;;;;;26.00;11.50;;;6.30;72.40;;;;;;5023125;28;20045;-74
2021/04/04 06:05:27;;;;;;;26.80;11.82;;;6.20;72.50;;;;;;5023368;28;20041;-74
2021/04/04 06:08:17;;;;;;;28.77;12.18;;;6.20;72.70;;;;;;5037779;28;20099;-73
2021/04/04 06:11:03;;;;;;;20.73;11.23;;;6.20;73.00;;;;;;5014680;28;20034;-74
2021/04/04 06:13:48;;;;;;;20.65;10.00;;;6.30;73.10;;;;;;4996196;28;20162;-73
2021/04/04 06:16:19;;;;;;;;;;;6.40;72.70;;;;;;5016065;28;20033;-74
2021/04/04 06:19:05;;;;;;;22.85;9.60;;;6.30;72.70;;;;;;5019559;28;19921;-73
2021/04/04 06:22:08;;;;;;;21.08;9.45;;;6.40;72.90;;;;;;4987109;28;20058;-73
2021/04/04 06:24:47;;;;;;;18.00;9.70;;;6.40;73.00;;;;;;5019607;28;20045;-73
2021/04/04 06:27:24;;;;;;;17.95;9.07;;;6.40;72.80;;;;;;5019800;28;20048;-73
2021/04/04 06:33:20;;;;;;;20.67;8.45;;;6.50;72.60;;;;;;5013209;28;20045;-73
2021/04/04 06:36:14;;;;;;;19.50;8.80;;;6.50;72.60;;;;;;5031237;28;20228;-73
2021/04/04 06:38:58;;;;;;;22.35;9.70;;;6.50;72.90;;;;;;5023847;28;20029;-73
2021/04/04 06:41:50;;;;;;;18.65;9.05;;;6.50;72.40;;;;;;5022751;28;20120;-73
2021/04/04 06:44:23;;;;;;;18.25;8.57;;;6.50;72.50;;;;;;5020823;28;20516;-74
2021/04/04 06:46:58;;;;;;;19.45;8.73;;;6.60;72.50;;;;;;5021003;28;20384;-73
2021/04/04 06:49:30;;;;;;;21.70;9.40;;;6.60;72.50;;;;;;5022519;28;20076;-73
2021/04/04 06:52:20;;;;;;;18.55;9.30;;;6.60;72.20;;;;;;5024159;28;20396;-73
2021/04/04 06:55:08;;;;;;;20.58;9.93;;;6.60;72.60;;;;;;5025418;28;20034;-73
2021/04/04 06:57:40;;;;;;;21.25;9.68;;;6.60;72.10;;;;;;5002245;28;20081;-74
2021/04/04 07:00:27;;;;;;;21.38;9.85;;;6.70;72.20;;;;;;4998353;28;20320;-73
2021/04/04 07:02:56;;;;;;;18.52;9.45;;;6.70;72.40;;;;;;4990166;28;20074;-74
2021/04/04 07:05:24;;;;;;;21.92;9.52;;;6.80;72.40;;;;;;4993610;28;20064;-73
2021/04/04 07:08:29;;;;;;;20.70;9.57;;;6.80;72.20;;;;;;4991172;28;20034;-74
2021/04/04 07:11:01;;;;;;;18.83;9.40;;;6.70;71.40;;;;;;5018223;28;20041;-74
2021/04/04 07:13:34;;;;;;;20.08;9.13;;;6.80;71.10;;;;;;5023430;28;20830;-74
2021/04/04 07:16:20;;;;;;;19.20;9.07;;;6.80;70.80;;;;;;5023301;28;20400;-74
2021/04/04 07:19:22;;;;;;;18.35;8.68;;;6.80;70.40;;;;;;5024061;28;20033;-74
2021/04/04 07:21:56;;;;;;;17.95;8.75;;;6.80;70.70;;;;;;5004086;28;20064;-75
2021/04/04 07:24:47;;;;;;;20.05;8.50;;;6.80;70.50;;;;;;5005196;28;20034;-74
2021/04/04 07:27:26;;;;;;;17.85;8.63;;;6.80;70.60;;;;;;4997597;28;20441;-75
2021/04/04 07:30:33;;;;;;;17.02;8.18;;;6.80;70.10;;;;;;4995715;28;20104;-74
2021/04/04 07:33:22;;;;;;;15.40;7.75;;;6.80;70.40;;;;;;5061921;28;20060;-73
2021/04/04 07:35:54;;;;;;;14.57;5.95;;;6.90;69.90;;;;;;5019392;28;20428;-74
2021/04/04 07:38:42;;;;;;;20.08;7.47;;;6.80;69.20;;;;;;5023916;28;20504;-73
2021/04/04 07:41:27;;;;;;;15.63;6.45;;;6.80;69.50;;;;;;5022074;28;20034;-74
2021/04/04 07:44:15;;;;;;;13.40;5.80;;;6.90;69.50;;;;;;5035033;28;20385;-75
2021/04/04 07:46:47;;;;;;;13.60;6.63;;;6.90;68.70;;;;;;5007128;28;20439;-74
2021/04/04 07:49:26;;;;;;;18.15;6.20;;;7.00;69.20;;;;;;5013221;28;20069;-71
2021/04/04 07:51:57;;;;;;;13.15;5.63;;;6.90;69.20;;;;;;5007288;28;20116;-71
2021/04/04 07:54:37;;;;;;;14.82;5.60;;;7.00;69.30;;;;;;5022799;28;20041;-71
2021/04/04 07:57:27;;;;;;;14.10;5.60;;;6.90;69.40;;;;;;5029750;28;20128;-70
2021/04/04 07:59:59;;;;;;;12.05;5.82;;;6.90;69.70;;;;;;5031116;28;20097;-70
2021/04/04 08:02:52;;;;;;;17.20;6.00;;;7.00;69.70;;;;;;5024577;28;20038;-70
2021/04/04 08:05:26;;;;;;;18.85;6.85;;;7.10;69.90;;;;;;5035274;28;20033;-70
2021/04/04 08:07:51;;;;;;;18.90;5.40;;;7.10;69.60;;;;;;5021440;28;20523;-70
2021/04/04 08:10:30;;;;;;;15.00;5.65;;;7.00;69.20;;;;;;5030640;28;20034;-71
2021/04/04 08:13:30;;;;;;;13.80;5.57;;;7.00;69.60;;;;;;5018359;28;20046;-71
2021/04/04 08:16:14;;;;;;;16.15;5.60;;;7.10;69.90;;;;;;5021612;28;20046;-68
2021/04/04 08:18:40;;;;;;;14.30;5.80;;;7.10;69.20;;;;;;5008455;28;20108;-71
2021/04/04 08:21:17;;;;;;;22.85;6.13;;;7.10;69.10;;;;;;4996590;28;20030;-69
2021/04/04 08:23:50;;;;;;;15.07;5.50;;;7.10;69.10;;;;;;4993145;28;20041;-68
2021/04/04 08:26:32;;;;;;;17.00;5.40;;;6.90;69.90;;;;;;4999345;28;20061;-68
2021/04/04 08:29:10;;;;;;;15.88;6.10;;;7.10;69.80;;;;;;5000305;28;20165;-69
2021/04/04 08:31:46;;;;;;;13.50;5.95;;;7.10;68.90;;;;;;5023573;28;20037;-68
2021/04/04 08:34:17;;;;;;;12.25;5.13;;;7.20;68.90;;;;;;5019288;28;20087;-70
2021/04/04 08:36:50;;;;;;;11.82;5.55;;;7.30;69.00;;;;;;5031951;28;20029;-69
2021/04/04 08:39:19;;;;;;;15.70;5.43;;;7.30;68.80;;;;;;5027431;28;20496;-69
2021/04/04 08:41:46;;;;;;;13.32;5.88;;;7.20;68.00;;;;;;5028649;28;20135;-69
2021/04/04 08:44:27;;;;;;;14.95;5.10;;;7.30;67.90;;;;;;5028528;28;20046;-69
2021/04/04 08:46:58;;;;;;;12.48;5.18;;;7.20;67.70;;;;;;5024915;28;20084;-69
2021/04/04 08:49:25;;;;;;;19.77;6.35;;;7.30;67.70;;;;;;5025250;28;20034;-69
2021/04/04 08:52:06;;;;;;;16.92;5.15;;;7.40;67.90;;;;;;5022085;28;20034;-69
2021/04/04 08:54:34;;;;;;;15.98;4.40;;;7.60;67.30;;;;;;5021150;28;20487;-70
2021/04/04 08:57:00;;;;;;;17.40;5.13;;;7.50;66.50;;;;;;5021710;28;20034;-68
2021/04/04 08:59:31;;;;;;;16.67;4.30;;;7.40;66.60;;;;;;5022230;28;20084;-69
2021/04/04 09:02:05;;;;;;;12.60;4.70;;;7.60;66.80;;;;;;5017911;28;20124;-71
2021/04/04 09:04:33;;;;;;;14.95;5.03;;;7.70;67.00;;;;;;5014832;28;20048;-69
2021/04/04 09:07:03;;;;;;;14.55;4.82;;;7.70;66.10;;;;;;5017557;28;20052;-69
2021/04/04 09:09:56;;;;;;;12.85;5.15;;;7.80;65.50;;;;;;5028555;28;20053;-69
2021/04/04 09:12:22;;;;;;;18.42;5.43;;;7.80;65.70;;;;;;5020381;28;20129;-69
2021/04/04 09:14:48;;;;;;;18.02;4.82;;;7.80;65.90;;;;;;5031935;28;20026;-70
2021/04/04 09:17:16;;;;;;;19.73;5.25;;;7.80;66.40;;;;;;5026843;28;20033;-69
2021/04/04 09:19:45;;;;;;;15.48;5.15;;;7.90;66.30;;;;;;5027542;28;20037;-69
2021/04/04 09:22:16;;;;;;;18.10;4.93;;;7.80;66.20;;;;;;5019938;28;20083;-70
2021/04/04 09:24:49;;;;;;;15.57;4.53;;;7.70;66.00;;;;;;5030590;28;20083;-69
2021/04/04 09:27:20;;;;;;;10.02;4.72;;;7.90;65.60;;;;;;5018564;28;20049;-70
2021/04/04 09:29:50;;;;;;;15.35;5.63;;;8.10;64.60;;;;;;5024526;28;20456;-70
2021/04/04 09:32:35;;;;;;;13.88;4.95;;;8.20;65.30;;;;;;5013753;28;20064;-70
2021/04/04 09:35:04;;;;;;;15.98;5.05;;;8.30;64.60;;;;;;5011041;28;20045;-70
2021/04/04 09:37:30;;;;;;;18.55;5.10;;;8.30;64.10;;;;;;5012513;28;20030;-69
2021/04/04 09:39:58;;;;;;;13.13;4.75;;;8.20;65.10;;;;;;5015400;28;21019;-71
2021/04/04 09:42:28;;;;;;;13.48;5.28;;;8.20;64.90;;;;;;5015248;28;20029;-70
2021/04/04 09:45:15;;;;;;;10.65;4.55;;;8.30;64.40;;;;;;5009368;28;20045;-72
2021/04/04 09:47:42;;;;;;;16.35;4.90;;;8.40;64.00;;;;;;5016303;28;20057;-70
2021/04/04 09:50:28;;;;;;;14.80;5.20;;;8.20;64.20;;;;;;5018262;28;20037;-71
2021/04/04 09:52:55;;;;;;;16.35;5.65;;;8.00;65.20;;;;;;5015115;28;20045;-72
2021/04/04 09:55:27;;;;;;;12.73;5.93;;;8.10;65.00;;;;;;5012231;28;20265;-73
2021/04/04 09:58:01;;;;;;;14.75;5.72;;;7.90;65.20;;;;;;5014134;28;20060;-73
2021/04/04 10:00:40;;;;;;;15.45;4.78;;;8.20;65.40;;;;;;5010483;28;20036;-76
2021/04/04 10:03:14;;;;;;;16.52;5.10;;;8.00;64.90;;;;;;5010062;28;20025;-76
2021/04/04 10:05:42;;;;;;;13.20;5.40;;;7.80;65.80;;;;;;5012601;28;20045;-75
2021/04/04 10:08:21;;;;;;;11.93;5.50;;;8.00;65.80;;;;;;5009395;28;20029;-69
2021/04/04 10:10:50;;;;;;;13.77;4.78;;;8.10;66.00;;;;;;5014223;28;20037;-69
2021/04/04 10:13:17;;;;;;;14.60;6.60;;;8.30;65.10;;;;;;5019539;28;20143;-69
2021/04/04 10:15:45;;;;;;;18.27;5.80;;;8.10;65.40;;;;;;5024104;28;20492;-69
2021/04/04 10:18:12;;;;;;;14.70;7.20;;;8.10;65.20;;;;;;5020799;28;20330;-71
2021/04/04 10:20:55;;;;;;;17.38;5.88;;;8.20;65.40;;;;;;5012250;28;20067;-70
2021/04/04 10:23:33;;;;;;;15.35;6.63;;;8.40;65.20;;;;;;5008172;28;20115;-70
2021/04/04 10:26:05;;;;;;;17.67;6.45;;;8.20;65.20;;;;;;5016268;28;20040;-69
2021/04/04 10:28:49;;;;;;;14.43;6.18;;;8.40;65.40;;;;;;5016265;28;20029;-70
2021/04/04 10:31:16;;;;;;;15.60;6.43;;;8.50;65.30;;;;;;5007424;28;20030;-69
2021/04/04 10:33:42;;;;;;;17.58;6.75;;;8.60;64.30;;;;;;5009595;28;20128;-69
2021/04/04 10:36:13;;;;;;;13.73;6.00;;;8.60;64.50;;;;;;5015458;28;20030;-69
2021/04/04 10:38:39;;;;;;;18.58;6.40;;;8.80;64.30;;;;;;5015435;28;20032;-71
2021/04/04 10:41:05;;;;;;;18.02;6.45;;;8.90;64.30;;;;;;5016131;28;20041;-69
2021/04/04 10:43:45;;;;;;;20.25;8.23;;;8.90;64.00;;;;;;5020128;28;20487;-69
2021/04/04 10:46:13;;;;;;;19.40;7.22;;;8.60;63.30;;;;;;5010276;28;20430;-69
2021/04/04 10:48:41;;;;;;;18.83;6.63;;;8.50;64.60;;;;;;5028108;28;20393;-68
2021/04/04 10:51:08;;;;;;;20.42;8.13;;;8.60;64.20;;;;;;5004976;28;20029;-69
2021/04/04 10:53:35;;;;;;;15.50;6.60;;;8.50;63.90;;;;;;5017723;28;20059;-71
2021/04/04 10:56:02;;;;;;;14.32;6.43;;;8.40;64.30;;;;;;5023240;28;20033;-71
2021/04/04 10:58:28;;;;;;;16.60;6.93;;;8.50;63.80;;;;;;5027650;28;20495;-69
2021/04/04 11:00:58;;;;;;;14.73;6.60;;;8.50;63.50;;;;;;5021454;28;20087;-69
2021/04/04 11:03:25;;;;;;;19.23;7.85;;;8.60;63.40;;;;;;5011621;28;21159;-70
2021/04/04 11:05:51;;;;;;;20.95;7.28;;;8.70;63.30;;;;;;5013321;28;20397;-71
2021/04/04 11:08:17;;;;;;;15.55;6.85;;;8.70;63.60;;;;;;5016465;28;20033;-70
2021/04/04 11:10:43;;;;;;;16.33;6.60;;;8.80;63.60;;;;;;5017050;28;20037;-71
2021/04/04 11:13:13;;;;;;;16.30;7.32;;;8.90;63.40;;;;;;5013718;28;20132;-69
2021/04/04 11:15:41;;;;;;;17.98;7.10;;;9.10;63.10;;;;;;5013079;28;20033;-70
2021/04/04 11:18:34;;;;;;;15.75;6.90;;;9.10;63.00;;;;;;5019089;28;20025;-71
2021/04/04 11:21:05;;;;;;;13.73;7.00;;;8.80;62.90;;;;;;4993580;28;20068;-70
2021/04/04 11:23:31;;;;;;;19.88;7.35;;;8.90;63.30;;;;;;4997058;28;20028;-70
2021/04/04 11:25:56;;;;;;;15.73;7.50;;;8.80;63.30;;;;;;4992555;28;20049;-69
2021/04/04 11:28:24;;;;;;;17.90;8.45;;;8.70;62.70;;;;;;4994151;28;20038;-70
2021/04/04 11:30:52;;;;;;;18.20;7.45;;;8.60;63.30;;;;;;4993960;28;20498;-71
2021/04/04 11:33:17;;;;;;;15.93;7.15;;;8.80;63.50;;;;;;4998239;28;20044;-71
2021/04/04 11:36:01;;;;;;;17.30;7.45;;;8.70;64.10;;;;;;4992391;28;20715;-69
2021/04/04 11:38:28;;;;;;;14.02;6.95;;;8.70;63.00;;;;;;4999761;28;20746;-70
2021/04/04 11:41:24;;;;;;;14.48;7.82;;;8.70;63.20;;;;;;4986081;28;20471;-70
2021/04/04 11:44:11;;;;;;;15.77;7.50;;;8.70;63.50;;;;;;5015152;28;20076;-70
2021/04/04 11:46:59;;;;;;;20.58;7.50;;;8.80;63.40;;;;;;5009778;28;20037;-71
2021/04/04 11:49:33;;;;;;;16.25;7.95;;;8.80;63.90;;;;;;5028837;28;20058;-69
2021/04/04 11:52:08;;;;;;;15.10;7.75;;;8.80;63.50;;;;;;5019479;28;20077;-71
2021/04/04 11:54:49;;;;;;;16.50;7.40;;;8.70;63.00;;;;;;5021739;28;20037;-70
2021/04/04 11:57:36;;;;;;;17.08;7.90;;;8.60;63.30;;;;;;5015125;28;20050;-70
2021/04/04 12:00:05;;;;;;;22.20;8.05;;;8.90;64.00;;;;;;5014876;28;20349;-69
2021/04/04 12:02:32;;;;;;;15.88;7.57;;;8.90;63.40;;;;;;5003188;28;20042;-70
2021/04/04 12:05:14;;;;;;;18.48;7.78;;;9.10;63.10;;;;;;4998829;28;20034;-71
2021/04/04 12:07:47;;;;;;;16.40;7.30;;;9.20;62.60;;;;;;5019021;28;21182;-70
2021/04/04 12:10:24;;;;;;;18.88;7.93;;;9.10;62.70;;;;;;5020004;28;20018;-69
2021/04/04 12:12:50;;;;;;;17.40;8.13;;;9.30;61.80;;;;;;5020965;28;20052;-69
2021/04/04 12:15:18;;;;;;;19.83;8.80;;;9.40;61.60;;;;;;5017604;28;20022;-70
2021/04/04 12:17:46;;;;;;;16.27;8.10;;;9.20;61.60;;;;;;5020632;28;20049;-69
2021/04/04 12:20:12;;;;;;;17.92;7.93;;;9.10;61.80;;;;;;5021816;28;20038;-69
2021/04/04 12:22:46;;;;;;;14.18;7.22;;;9.10;62.00;;;;;;5018833;28;20041;-69
2021/04/04 12:25:23;;;;;;;15.05;7.72;;;9.20;61.70;;;;;;5024973;28;20042;-69
2021/04/04 12:27:50;;;;;;;14.10;8.00;;;9.10;61.10;;;;;;5025772;28;20108;-70
2021/04/04 12:30:27;;;;;;;17.85;8.02;;;9.30;61.40;;;;;;5031208;28;20039;-68
2021/04/04 12:33:11;;;;;;;15.63;7.80;;;9.30;61.60;;;;;;5032173;28;20089;-69
2021/04/04 12:35:42;;;;;;;17.83;8.23;;;9.40;60.50;;;;;;5022642;28;20044;-69
2021/04/04 12:38:08;;;;;;;18.10;8.50;;;9.50;61.10;;;;;;5029556;28;20063;-71
2021/04/04 12:40:35;;;;;;;13.07;7.45;;;9.70;60.50;;;;;;5019694;28;20045;-69
2021/04/04 12:43:04;;;;;;;15.80;7.97;;;9.80;60.00;;;;;;5022717;28;20365;-68
2021/04/04 12:45:37;;;;;;;16.50;7.82;;;10.10;59.60;;;;;;5029744;28;20034;-68
2021/04/04 12:48:24;;;;;;;15.57;7.78;;;10.30;59.00;;;;;;5023838;28;20037;-69
2021/04/04 12:51:00;;;;;;;17.30;7.43;;;10.60;58.40;;;;;;5024554;28;20061;-68
2021/04/04 12:53:28;;;;;;;21.05;8.00;;;10.50;56.90;;;;;;5022785;28;20113;-70
2021/04/04 12:55:54;;;;;;;15.98;7.85;;;10.40;56.70;;;;;;5019768;28;20042;-68
2021/04/04 12:58:28;;;;;;;14.50;7.43;;;10.20;57.70;;;;;;5019251;28;20053;-69
2021/04/04 13:00:54;;;;;;;15.80;7.50;;;10.30;57.60;;;;;;5025994;28;20048;-68
2021/04/04 13:03:20;;;;;;;17.35;8.27;;;10.30;58.00;;;;;;5029488;28;20171;-69
2021/04/04 13:05:48;;;;;;;16.75;8.48;;;10.20;58.10;;;;;;5032444;28;20050;-68
2021/04/04 13:08:22;;;;;;;20.20;8.65;;;10.20;59.00;;;;;;5029231;28;20056;-69
2021/04/04 13:10:56;;;;;;;16.85;9.73;;;9.90;59.80;;;;;;5028025;28;20048;-68
2021/04/04 13:13:43;;;;;;;14.98;8.35;;;10.00;60.10;;;;;;5017094;28;20389;-70